sensor_id;sensor_type;location;lat;lon;timestamp;pressure;altitude;pressure_sealevel;temperature;humidity
47154;BME280;32907;41.412;2.164;2023-02-23T00:01:25;100411.44;;;18.93;45.73
47154;BME280;32907;41.412;2.164;2023-02-23T00:03:57;100398.34;;;18.95;45.93
47154;BME280;32907;41.412;2.164;2023-02-23T00:06:29;100412.13;;;19.04;45.95
47154;BME280;32907;41.412;2.164;2023-02-23T00:08:58;100448.63;;;19.21;45.73
47154;BME280;32907;41.412;2.164;2023-02-23T00:11:27;100445.44;;;19.14;46.12
47154;BME280;32907;41.412;2.164;2023-02-23T00:13:56;100469.00;;;19.24;45.75
47154;BME280;32907;41.412;2.164;2023-02-23T00:16:24;100476.78;;;19.36;46.27
47154;BME280;32907;41.412;2.164;2023-02-23T00:18:55;100471.84;;;19.38;46.12
47154;BME280;32907;41.412;2.164;2023-02-23T00:21:29;100447.31;;;19.19;45.41
47154;BME280;32907;41.412;2.164;2023-02-23T00:24:09;100470.81;;;19.34;45.86
47154;BME280;32907;41.412;2.164;2023-02-23T00:26:38;100461.59;;;19.29;45.81
47154;BME280;32907;41.412;2.164;2023-02-23T00:29:12;100421.91;;;19.05;45.66
47154;BME280;32907;41.412;2.164;2023-02-23T00:31:44;100441.88;;;19.19;45.91
47154;BME280;32907;41.412;2.164;2023-02-23T00:34:15;100458.88;;;19.29;45.48
47154;BME280;32907;41.412;2.164;2023-02-23T00:36:52;100452.34;;;19.31;45.72
47154;BME280;32907;41.412;2.164;2023-02-23T00:39:23;100409.63;;;19.07;45.91
47154;BME280;32907;41.412;2.164;2023-02-23T00:41:56;100424.81;;;19.13;45.77
47154;BME280;32907;41.412;2.164;2023-02-23T00:44:30;100412.91;;;19.09;45.69
47154;BME280;32907;41.412;2.164;2023-02-23T00:47:00;100275.72;;;18.20;45.71
47154;BME280;32907;41.412;2.164;2023-02-23T00:49:28;100337.53;;;18.62;45.81
47154;BME280;32907;41.412;2.164;2023-02-23T00:51:56;100393.22;;;18.93;45.70
47154;BME280;32907;41.412;2.164;2023-02-23T00:54:27;100435.56;;;19.23;45.60
47154;BME280;32907;41.412;2.164;2023-02-23T00:56:56;100358.31;;;18.77;45.62
47154;BME280;32907;41.412;2.164;2023-02-23T00:59:25;100429.38;;;19.18;46.03
47154;BME280;32907;41.412;2.164;2023-02-23T01:01:54;100399.94;;;19.01;46.01
47154;BME280;32907;41.412;2.164;2023-02-23T01:04:22;100433.94;;;19.22;46.09
47154;BME280;32907;41.412;2.164;2023-02-23T01:06:50;100384.66;;;19.05;45.71
47154;BME280;32907;41.412;2.164;2023-02-23T01:09:19;100317.72;;;18.61;45.55
47154;BME280;32907;41.412;2.164;2023-02-23T01:11:55;100310.63;;;18.60;45.82
47154;BME280;32907;41.412;2.164;2023-02-23T01:14:24;100417.06;;;19.25;45.79
47154;BME280;32907;41.412;2.164;2023-02-23T01:16:51;100405.91;;;19.27;45.56
47154;BME280;32907;41.412;2.164;2023-02-23T01:19:19;100410.00;;;19.24;45.64
47154;BME280;32907;41.412;2.164;2023-02-23T01:21:48;100040.88;;;16.87;45.53
47154;BME280;32907;41.412;2.164;2023-02-23T01:24:17;100352.25;;;18.85;45.43
47154;BME280;32907;41.412;2.164;2023-02-23T01:26:45;100357.47;;;18.81;45.41
47154;BME280;32907;41.412;2.164;2023-02-23T01:29:15;100285.81;;;18.43;45.21
47154;BME280;32907;41.412;2.164;2023-02-23T01:31:46;100411.16;;;19.18;45.48
47154;BME280;32907;41.412;2.164;2023-02-23T01:34:18;100413.88;;;19.18;45.51
47154;BME280;32907;41.412;2.164;2023-02-23T01:36:49;100364.69;;;18.91;45.41
47154;BME280;32907;41.412;2.164;2023-02-23T01:39:19;100361.25;;;18.85;45.66
47154;BME280;32907;41.412;2.164;2023-02-23T01:41:47;100371.94;;;19.00;45.70
47154;BME280;32907;41.412;2.164;2023-02-23T01:46:46;100325.72;;;18.77;45.60
47154;BME280;32907;41.412;2.164;2023-02-23T01:49:21;100387.81;;;19.17;45.44
47154;BME280;32907;41.412;2.164;2023-02-23T01:54:32;100333.22;;;18.85;45.38
47154;BME280;32907;41.412;2.164;2023-02-23T01:57:06;100305.09;;;18.76;45.68
47154;BME280;32907;41.412;2.164;2023-02-23T01:59:40;100225.69;;;18.31;45.46
47154;BME280;32907;41.412;2.164;2023-02-23T02:02:10;100352.72;;;19.16;45.30
47154;BME280;32907;41.412;2.164;2023-02-23T02:04:41;100355.19;;;19.17;45.57
47154;BME280;32907;41.412;2.164;2023-02-23T02:07:20;100299.66;;;18.76;45.10
47154;BME280;32907;41.412;2.164;2023-02-23T02:09:55;100333.66;;;18.97;45.40
47154;BME280;32907;41.412;2.164;2023-02-23T02:12:48;100349.84;;;19.07;45.41
47154;BME280;32907;41.412;2.164;2023-02-23T02:15:20;100294.03;;;18.67;45.66
47154;BME280;32907;41.412;2.164;2023-02-23T02:23:43;100363.69;;;19.11;45.48
47154;BME280;32907;41.412;2.164;2023-02-23T02:35:17;100346.03;;;19.08;45.54
47154;BME280;32907;41.412;2.164;2023-02-23T02:46:36;100313.50;;;19.03;45.43
47154;BME280;32907;41.412;2.164;2023-02-23T02:49:49;100317.22;;;19.07;45.54
47154;BME280;32907;41.412;2.164;2023-02-23T02:52:32;100319.94;;;19.07;45.66
47154;BME280;32907;41.412;2.164;2023-02-23T02:55:08;100257.16;;;18.61;45.54
47154;BME280;32907;41.412;2.164;2023-02-23T02:57:39;100335.78;;;19.00;45.68
47154;BME280;32907;41.412;2.164;2023-02-23T03:00:17;100294.69;;;18.83;45.65
47154;BME280;32907;41.412;2.164;2023-02-23T03:03:04;100290.88;;;18.84;45.93
47154;BME280;32907;41.412;2.164;2023-02-23T03:05:51;100311.13;;;18.96;45.70
47154;BME280;32907;41.412;2.164;2023-02-23T03:08:49;100288.22;;;18.79;45.55
47154;BME280;32907;41.412;2.164;2023-02-23T03:12:08;100243.13;;;18.54;45.75
47154;BME280;32907;41.412;2.164;2023-02-23T03:14:54;100288.56;;;18.96;45.42
47154;BME280;32907;41.412;2.164;2023-02-23T03:17:47;100286.72;;;18.91;45.72
47154;BME280;32907;41.412;2.164;2023-02-23T03:20:40;100291.88;;;18.93;45.94
47154;BME280;32907;41.412;2.164;2023-02-23T03:23:45;100270.81;;;18.80;45.84
47154;BME280;32907;41.412;2.164;2023-02-23T03:26:44;100300.53;;;18.95;45.80
47154;BME280;32907;41.412;2.164;2023-02-23T03:29:53;100188.16;;;18.38;45.90
47154;BME280;32907;41.412;2.164;2023-02-23T03:32:48;100270.16;;;18.93;46.02
47154;BME280;32907;41.412;2.164;2023-02-23T03:38:52;100267.34;;;18.98;46.16
47154;BME280;32907;41.412;2.164;2023-02-23T03:41:43;100239.03;;;18.80;46.06
47154;BME280;32907;41.412;2.164;2023-02-23T03:44:36;100270.06;;;18.98;45.98
47154;BME280;32907;41.412;2.164;2023-02-23T03:47:29;100272.28;;;18.96;46.03
47154;BME280;32907;41.412;2.164;2023-02-23T03:53:16;100201.34;;;18.50;46.34
47154;BME280;32907;41.412;2.164;2023-02-23T03:56:04;100246.09;;;18.81;46.48
47154;BME280;32907;41.412;2.164;2023-02-23T03:58:58;100222.63;;;18.66;46.92
47154;BME280;32907;41.412;2.164;2023-02-23T04:01:49;100244.34;;;18.66;46.86
47154;BME280;32907;41.412;2.164;2023-02-23T04:04:37;100237.91;;;18.57;47.10
47154;BME280;32907;41.412;2.164;2023-02-23T04:07:25;100206.91;;;18.34;47.32
47154;BME280;32907;41.412;2.164;2023-02-23T04:10:12;100214.31;;;18.53;47.23
47154;BME280;32907;41.412;2.164;2023-02-23T04:13:10;100265.06;;;18.86;47.32
47154;BME280;32907;41.412;2.164;2023-02-23T04:18:19;100271.03;;;18.83;47.21
47154;BME280;32907;41.412;2.164;2023-02-23T04:20:49;100194.91;;;18.40;47.24
47154;BME280;32907;41.412;2.164;2023-02-23T04:23:17;100182.78;;;18.33;47.50
47154;BME280;32907;41.412;2.164;2023-02-23T04:25:45;100204.84;;;18.50;47.64
47154;BME280;32907;41.412;2.164;2023-02-23T04:28:14;100195.13;;;18.44;47.77
47154;BME280;32907;41.412;2.164;2023-02-23T04:30:42;100200.22;;;18.51;47.42
47154;BME280;32907;41.412;2.164;2023-02-23T04:33:10;100259.31;;;18.88;47.63
47154;BME280;32907;41.412;2.164;2023-02-23T04:35:40;100251.72;;;18.85;47.27
47154;BME280;32907;41.412;2.164;2023-02-23T04:38:08;100153.34;;;18.21;47.55
47154;BME280;32907;41.412;2.164;2023-02-23T04:40:36;99920.25;;;16.71;47.10
47154;BME280;32907;41.412;2.164;2023-02-23T04:43:04;100252.09;;;18.78;47.60
47154;BME280;32907;41.412;2.164;2023-02-23T04:45:32;100234.84;;;18.69;47.69
47154;BME280;32907;41.412;2.164;2023-02-23T04:48:00;100152.88;;;18.14;47.60
47154;BME280;32907;41.412;2.164;2023-02-23T04:50:28;100225.59;;;18.70;47.61
47154;BME280;32907;41.412;2.164;2023-02-23T04:52:58;100211.00;;;18.61;47.69
47154;BME280;32907;41.412;2.164;2023-02-23T04:55:27;100148.47;;;18.18;47.58
47154;BME280;32907;41.412;2.164;2023-02-23T04:57:59;100184.88;;;18.41;47.42
47154;BME280;32907;41.412;2.164;2023-02-23T05:00:28;100230.44;;;18.73;47.64
47154;BME280;32907;41.412;2.164;2023-02-23T05:02:56;100218.53;;;18.69;47.58
47154;BME280;32907;41.412;2.164;2023-02-23T05:05:24;100241.47;;;18.82;47.50
47154;BME280;32907;41.412;2.164;2023-02-23T05:07:52;100238.78;;;18.77;47.74
47154;BME280;32907;41.412;2.164;2023-02-23T05:10:22;100243.72;;;18.75;47.62
47154;BME280;32907;41.412;2.164;2023-02-23T05:12:50;100118.78;;;18.03;47.61
47154;BME280;32907;41.412;2.164;2023-02-23T05:15:18;100231.47;;;18.77;47.24
47154;BME280;32907;41.412;2.164;2023-02-23T05:17:46;100234.91;;;18.83;47.41
47154;BME280;32907;41.412;2.164;2023-02-23T05:20:14;100186.31;;;18.57;47.14
47154;BME280;32907;41.412;2.164;2023-02-23T05:22:43;100123.47;;;18.21;47.24
47154;BME280;32907;41.412;2.164;2023-02-23T05:25:12;100209.22;;;18.75;47.31
47154;BME280;32907;41.412;2.164;2023-02-23T05:27:40;100221.84;;;18.85;47.16
47154;BME280;32907;41.412;2.164;2023-02-23T05:30:09;100230.00;;;18.85;47.50
47154;BME280;32907;41.412;2.164;2023-02-23T05:32:37;100142.66;;;18.30;47.34
47154;BME280;32907;41.412;2.164;2023-02-23T05:35:05;100169.56;;;18.50;47.05
47154;BME280;32907;41.412;2.164;2023-02-23T05:37:34;100213.28;;;18.78;47.05
47154;BME280;32907;41.412;2.164;2023-02-23T05:40:02;100168.69;;;18.55;47.50
47154;BME280;32907;41.412;2.164;2023-02-23T05:42:30;100149.06;;;18.39;48.37
47154;BME280;32907;41.412;2.164;2023-02-23T05:44:58;100229.94;;;18.90;48.79
47154;BME280;32907;41.412;2.164;2023-02-23T05:47:26;100222.31;;;18.92;48.12
47154;BME280;32907;41.412;2.164;2023-02-23T05:49:54;100228.03;;;18.90;48.10
47154;BME280;32907;41.412;2.164;2023-02-23T05:52:23;100221.25;;;18.93;47.89
47154;BME280;32907;41.412;2.164;2023-02-23T05:54:51;100216.66;;;18.88;47.85
47154;BME280;32907;41.412;2.164;2023-02-23T05:57:19;100157.53;;;18.56;47.80
47154;BME280;32907;41.412;2.164;2023-02-23T05:59:47;100203.59;;;18.90;47.86
47154;BME280;32907;41.412;2.164;2023-02-23T06:02:15;100206.81;;;18.92;47.89
47154;BME280;32907;41.412;2.164;2023-02-23T06:04:44;100153.69;;;18.62;48.34
47154;BME280;32907;41.412;2.164;2023-02-23T06:07:13;100201.63;;;18.96;48.66
47154;BME280;32907;41.412;2.164;2023-02-23T06:09:42;100178.13;;;18.86;48.29
47154;BME280;32907;41.412;2.164;2023-02-23T06:12:10;100197.22;;;19.00;48.17
47154;BME280;32907;41.412;2.164;2023-02-23T06:14:40;100190.09;;;19.04;48.06
47154;BME280;32907;41.412;2.164;2023-02-23T06:17:07;100187.91;;;19.06;48.05
47154;BME280;32907;41.412;2.164;2023-02-23T06:19:35;100200.38;;;19.07;47.82
47154;BME280;32907;41.412;2.164;2023-02-23T06:22:04;100096.91;;;18.42;48.11
47154;BME280;32907;41.412;2.164;2023-02-23T06:24:32;100171.34;;;18.84;48.34
47154;BME280;32907;41.412;2.164;2023-02-23T06:27:00;100204.50;;;19.05;48.38
47154;BME280;32907;41.412;2.164;2023-02-23T06:29:28;100173.41;;;18.92;48.20
47154;BME280;32907;41.412;2.164;2023-02-23T06:31:56;100161.28;;;18.84;48.33
47154;BME280;32907;41.412;2.164;2023-02-23T06:34:27;100119.69;;;18.65;48.42
47154;BME280;32907;41.412;2.164;2023-02-23T06:36:58;100122.66;;;18.68;48.47
47154;BME280;32907;41.412;2.164;2023-02-23T06:39:25;100140.09;;;18.86;48.20
47154;BME280;32907;41.412;2.164;2023-02-23T06:41:53;100081.28;;;18.53;47.97
47154;BME280;32907;41.412;2.164;2023-02-23T06:44:21;100157.66;;;18.94;48.08
47154;BME280;32907;41.412;2.164;2023-02-23T06:46:49;100172.69;;;19.05;48.00
47154;BME280;32907;41.412;2.164;2023-02-23T06:49:17;100192.63;;;19.19;47.83
47154;BME280;32907;41.412;2.164;2023-02-23T06:51:45;100178.94;;;19.06;48.05
47154;BME280;32907;41.412;2.164;2023-02-23T06:54:13;100054.09;;;18.34;47.71
47154;BME280;32907;41.412;2.164;2023-02-23T06:56:42;100139.53;;;18.84;47.22
47154;BME280;32907;41.412;2.164;2023-02-23T06:59:10;100183.34;;;19.02;47.51
47154;BME280;32907;41.412;2.164;2023-02-23T07:01:38;100215.47;;;19.18;47.72
47154;BME280;32907;41.412;2.164;2023-02-23T07:04:06;100214.34;;;19.19;47.75
47154;BME280;32907;41.412;2.164;2023-02-23T07:06:34;100219.78;;;19.19;47.81
47154;BME280;32907;41.412;2.164;2023-02-23T07:09:04;100209.50;;;19.16;47.93
47154;BME280;32907;41.412;2.164;2023-02-23T07:11:35;100131.38;;;18.65;48.21
47154;BME280;32907;41.412;2.164;2023-02-23T07:14:10;100207.97;;;19.10;48.70
47154;BME280;32907;41.412;2.164;2023-02-23T07:16:47;100212.00;;;19.13;48.60
47154;BME280;32907;41.412;2.164;2023-02-23T07:19:15;100155.13;;;18.79;48.48
47154;BME280;32907;41.412;2.164;2023-02-23T07:21:43;100204.34;;;19.15;48.70
47154;BME280;32907;41.412;2.164;2023-02-23T07:24:11;100188.53;;;18.98;48.53
47154;BME280;32907;41.412;2.164;2023-02-23T07:26:40;100224.19;;;19.15;48.92
47154;BME280;32907;41.412;2.164;2023-02-23T07:29:10;100192.38;;;18.97;48.23
47154;BME280;32907;41.412;2.164;2023-02-23T07:31:40;100218.19;;;19.18;48.49
47154;BME280;32907;41.412;2.164;2023-02-23T07:34:08;100190.50;;;18.92;48.22
47154;BME280;32907;41.412;2.164;2023-02-23T07:36:36;100180.03;;;18.86;48.43
47154;BME280;32907;41.412;2.164;2023-02-23T07:39:04;100184.28;;;18.92;48.64
47154;BME280;32907;41.412;2.164;2023-02-23T07:41:33;100215.66;;;19.03;48.30
47154;BME280;32907;41.412;2.164;2023-02-23T07:44:00;100184.00;;;18.93;48.57
47154;BME280;32907;41.412;2.164;2023-02-23T07:46:28;100198.84;;;19.01;48.77
47154;BME280;32907;41.412;2.164;2023-02-23T07:48:56;100219.63;;;19.11;48.88
47154;BME280;32907;41.412;2.164;2023-02-23T07:51:24;100233.84;;;19.26;48.68
47154;BME280;32907;41.412;2.164;2023-02-23T07:53:52;100211.19;;;19.12;48.37
47154;BME280;32907;41.412;2.164;2023-02-23T07:56:20;100231.41;;;19.25;48.41
47154;BME280;32907;41.412;2.164;2023-02-23T07:58:48;100208.41;;;19.17;48.37
47154;BME280;32907;41.412;2.164;2023-02-23T08:01:16;100173.06;;;18.98;48.10
47154;BME280;32907;41.412;2.164;2023-02-23T08:03:44;100168.22;;;18.95;47.96
47154;BME280;32907;41.412;2.164;2023-02-23T08:06:17;100197.91;;;19.11;48.25
47154;BME280;32907;41.412;2.164;2023-02-23T08:08:45;100089.50;;;18.48;48.13
47154;BME280;32907;41.412;2.164;2023-02-23T08:11:13;100227.19;;;19.33;47.99
47154;BME280;32907;41.412;2.164;2023-02-23T08:13:42;100212.53;;;19.34;48.54
47154;BME280;32907;41.412;2.164;2023-02-23T08:16:10;100229.66;;;19.34;48.71
47154;BME280;32907;41.412;2.164;2023-02-23T08:18:39;100146.69;;;18.80;48.60
47154;BME280;32907;41.412;2.164;2023-02-23T08:21:07;100147.34;;;18.91;48.67
47154;BME280;32907;41.412;2.164;2023-02-23T08:23:34;100136.56;;;18.86;48.68
47154;BME280;32907;41.412;2.164;2023-02-23T08:26:04;100216.78;;;19.40;48.63
47154;BME280;32907;41.412;2.164;2023-02-23T08:28:32;100190.34;;;19.26;49.04
47154;BME280;32907;41.412;2.164;2023-02-23T08:31:00;100219.38;;;19.50;49.09
47154;BME280;32907;41.412;2.164;2023-02-23T08:33:28;100189.69;;;19.35;48.42
47154;BME280;32907;41.412;2.164;2023-02-23T08:35:58;100204.97;;;19.49;48.69
47154;BME280;32907;41.412;2.164;2023-02-23T08:38:29;100215.44;;;19.56;48.70
47154;BME280;32907;41.412;2.164;2023-02-23T08:41:01;100223.34;;;19.58;48.58
47154;BME280;32907;41.412;2.164;2023-02-23T08:43:30;100233.44;;;19.57;48.51
47154;BME280;32907;41.412;2.164;2023-02-23T08:45:57;100193.72;;;19.37;48.80
47154;BME280;32907;41.412;2.164;2023-02-23T08:48:26;100164.84;;;19.22;48.54
47154;BME280;32907;41.412;2.164;2023-02-23T08:50:57;100205.22;;;19.48;48.15
47154;BME280;32907;41.412;2.164;2023-02-23T08:53:26;100215.34;;;19.66;47.97
47154;BME280;32907;41.412;2.164;2023-02-23T08:55:59;100158.81;;;19.25;47.95
47154;BME280;32907;41.412;2.164;2023-02-23T08:58:28;100218.13;;;19.61;47.69
47154;BME280;32907;41.412;2.164;2023-02-23T09:00:57;100214.28;;;19.62;47.95
47154;BME280;32907;41.412;2.164;2023-02-23T09:03:27;100201.41;;;19.49;47.44
47154;BME280;32907;41.412;2.164;2023-02-23T09:06:03;100227.31;;;19.65;47.62
47154;BME280;32907;41.412;2.164;2023-02-23T09:08:33;100212.72;;;19.56;47.77
47154;BME280;32907;41.412;2.164;2023-02-23T09:11:02;100203.41;;;19.43;47.47
47154;BME280;32907;41.412;2.164;2023-02-23T09:13:31;100221.94;;;19.60;47.46
47154;BME280;32907;41.412;2.164;2023-02-23T09:15:59;100201.50;;;19.44;47.52
47154;BME280;32907;41.412;2.164;2023-02-23T09:18:27;100231.72;;;19.61;47.53
47154;BME280;32907;41.412;2.164;2023-02-23T09:20:56;100125.75;;;18.99;47.62
47154;BME280;32907;41.412;2.164;2023-02-23T09:23:27;100142.50;;;19.07;47.51
47154;BME280;32907;41.412;2.164;2023-02-23T09:25:56;100185.69;;;19.46;47.09
47154;BME280;32907;41.412;2.164;2023-02-23T09:28:24;100181.88;;;19.47;47.29
47154;BME280;32907;41.412;2.164;2023-02-23T09:30:53;100210.47;;;19.63;47.09
47154;BME280;32907;41.412;2.164;2023-02-23T09:33:21;100189.34;;;19.55;47.17
47154;BME280;32907;41.412;2.164;2023-02-23T09:35:49;100136.03;;;19.21;47.07
47154;BME280;32907;41.412;2.164;2023-02-23T09:38:19;100120.41;;;19.13;46.85
47154;BME280;32907;41.412;2.164;2023-02-23T09:40:48;100211.50;;;19.67;47.15
47154;BME280;32907;41.412;2.164;2023-02-23T09:43:37;100205.25;;;19.67;46.90
47154;BME280;32907;41.412;2.164;2023-02-23T09:48:59;100085.34;;;18.55;47.32
47154;BME280;32907;41.412;2.164;2023-02-23T09:51:36;100178.94;;;19.43;47.00
47154;BME280;32907;41.412;2.164;2023-02-23T09:54:06;100208.84;;;19.62;47.18
47154;BME280;32907;41.412;2.164;2023-02-23T09:56:40;100208.28;;;19.65;47.63
47154;BME280;32907;41.412;2.164;2023-02-23T09:59:14;100207.38;;;19.70;48.18
47154;BME280;32907;41.412;2.164;2023-02-23T10:02:26;100127.94;;;19.16;48.11
47154;BME280;32907;41.412;2.164;2023-02-23T10:04:49;100130.16;;;19.33;47.84
47154;BME280;32907;41.412;2.164;2023-02-23T10:10:22;100197.72;;;19.77;47.38
47154;BME280;32907;41.412;2.164;2023-02-23T10:13:15;100196.63;;;19.78;46.63
47154;BME280;32907;41.412;2.164;2023-02-23T10:21:40;100137.66;;;19.41;46.39
47154;BME280;32907;41.412;2.164;2023-02-23T10:24:17;100148.44;;;19.46;46.16
47154;BME280;32907;41.412;2.164;2023-02-23T10:29:29;100193.41;;;19.76;46.84
47154;BME280;32907;41.412;2.164;2023-02-23T10:34:53;100109.00;;;19.30;46.67
47154;BME280;32907;41.412;2.164;2023-02-23T10:37:24;100047.72;;;18.86;46.60
47154;BME280;32907;41.412;2.164;2023-02-23T10:39:52;100174.00;;;19.64;46.98
47154;BME280;32907;41.412;2.164;2023-02-23T10:42:25;100193.91;;;19.78;46.74
47154;BME280;32907;41.412;2.164;2023-02-23T10:44:59;100173.44;;;19.67;46.51
47154;BME280;32907;41.412;2.164;2023-02-23T10:47:30;100097.47;;;19.19;46.38
47154;BME280;32907;41.412;2.164;2023-02-23T10:49:59;100180.00;;;19.80;46.64
47154;BME280;32907;41.412;2.164;2023-02-23T10:52:34;100182.13;;;19.83;45.95
47154;BME280;32907;41.412;2.164;2023-02-23T10:55:24;100184.06;;;19.82;45.47
47154;BME280;32907;41.412;2.164;2023-02-23T10:58:18;100180.53;;;19.82;45.84
47154;BME280;32907;41.412;2.164;2023-02-23T11:00:52;100180.41;;;19.73;45.55
47154;BME280;32907;41.412;2.164;2023-02-23T11:03:37;100155.06;;;19.59;45.44
47154;BME280;32907;41.412;2.164;2023-02-23T11:06:35;100170.84;;;19.76;45.77
47154;BME280;32907;41.412;2.164;2023-02-23T11:09:35;100173.63;;;19.71;45.80
47154;BME280;32907;41.412;2.164;2023-02-23T11:12:17;100168.09;;;19.76;45.90
47154;BME280;32907;41.412;2.164;2023-02-23T11:14:50;100148.63;;;19.69;45.84
47154;BME280;32907;41.412;2.164;2023-02-23T11:20:03;100157.97;;;19.81;45.65
47154;BME280;32907;41.412;2.164;2023-02-23T11:22:35;100113.19;;;19.55;45.76
47154;BME280;32907;41.412;2.164;2023-02-23T11:25:14;100162.28;;;19.82;46.00
47154;BME280;32907;41.412;2.164;2023-02-23T11:27:46;100099.19;;;19.48;45.79
47154;BME280;32907;41.412;2.164;2023-02-23T11:30:23;100132.13;;;19.65;45.88
47154;BME280;32907;41.412;2.164;2023-02-23T11:32:55;100069.53;;;19.33;45.80
47154;BME280;32907;41.412;2.164;2023-02-23T11:35:28;100151.69;;;19.81;46.37
47154;BME280;32907;41.412;2.164;2023-02-23T11:37:57;100066.91;;;19.27;46.52
47154;BME280;32907;41.412;2.164;2023-02-23T11:40:31;100096.03;;;19.41;46.79
47154;BME280;32907;41.412;2.164;2023-02-23T11:45:43;100133.38;;;19.87;48.01
47154;BME280;32907;41.412;2.164;2023-02-23T11:53:58;100133.16;;;19.83;46.21
47154;BME280;32907;41.412;2.164;2023-02-23T11:56:28;100132.13;;;19.79;45.59
47154;BME280;32907;41.412;2.164;2023-02-23T11:59:04;100119.59;;;19.64;46.16
47154;BME280;32907;41.412;2.164;2023-02-23T12:01:41;100088.72;;;19.41;46.57
47154;BME280;32907;41.412;2.164;2023-02-23T12:04:34;100126.50;;;19.75;46.52
47154;BME280;32907;41.412;2.164;2023-02-23T12:10:36;100084.06;;;19.42;46.91
47154;BME280;32907;41.412;2.164;2023-02-23T12:13:19;100133.03;;;19.74;47.36
47154;BME280;32907;41.412;2.164;2023-02-23T12:16:04;100097.69;;;19.74;47.22
47154;BME280;32907;41.412;2.164;2023-02-23T12:23:44;100083.16;;;19.65;47.90
47154;BME280;32907;41.412;2.164;2023-02-23T12:26:19;100048.13;;;19.45;48.66
47154;BME280;32907;41.412;2.164;2023-02-23T12:29:07;100101.09;;;19.66;49.47
47154;BME280;32907;41.412;2.164;2023-02-23T12:37:04;100066.53;;;19.48;50.14
47154;BME280;32907;41.412;2.164;2023-02-23T12:39:47;100053.13;;;19.38;50.38
47154;BME280;32907;41.412;2.164;2023-02-23T12:42:34;100000.19;;;19.03;50.24
47154;BME280;32907;41.412;2.164;2023-02-23T12:45:06;100070.78;;;19.54;50.39
47154;BME280;32907;41.412;2.164;2023-02-23T12:47:51;100052.63;;;19.36;51.02
47154;BME280;32907;41.412;2.164;2023-02-23T12:50:55;100055.59;;;19.53;50.56
47154;BME280;32907;41.412;2.164;2023-02-23T12:53:43;100026.25;;;19.36;51.04
47154;BME280;32907;41.412;2.164;2023-02-23T13:01:30;100033.84;;;19.53;50.79
47154;BME280;32907;41.412;2.164;2023-02-23T13:04:29;100032.19;;;19.57;50.63
47154;BME280;32907;41.412;2.164;2023-02-23T13:07:21;100028.69;;;19.51;51.03
47154;BME280;32907;41.412;2.164;2023-02-23T13:18:25;99945.84;;;19.16;50.14
47154;BME280;32907;41.412;2.164;2023-02-23T13:21:29;100005.03;;;19.52;50.03
47154;BME280;32907;41.412;2.164;2023-02-23T13:24:07;100018.16;;;19.64;50.02
47154;BME280;32907;41.412;2.164;2023-02-23T13:32:00;100008.59;;;19.66;49.89
47154;BME280;32907;41.412;2.164;2023-02-23T13:34:41;99935.41;;;19.23;49.45
47154;BME280;32907;41.412;2.164;2023-02-23T13:37:13;99979.13;;;19.54;48.99
47154;BME280;32907;41.412;2.164;2023-02-23T13:42:35;100005.47;;;19.73;49.19
47154;BME280;32907;41.412;2.164;2023-02-23T13:45:34;99941.16;;;19.36;49.24
47154;BME280;32907;41.412;2.164;2023-02-23T13:51:05;99904.91;;;19.13;49.08
47154;BME280;32907;41.412;2.164;2023-02-23T13:54:00;99989.44;;;19.71;49.17
47154;BME280;32907;41.412;2.164;2023-02-23T13:56:35;99988.16;;;19.69;48.74
47154;BME280;32907;41.412;2.164;2023-02-23T13:59:15;99987.03;;;19.70;48.82
47154;BME280;32907;41.412;2.164;2023-02-23T14:01:46;99991.69;;;19.69;48.88
47154;BME280;32907;41.412;2.164;2023-02-23T14:04:22;99843.44;;;18.70;48.54
47154;BME280;32907;41.412;2.164;2023-02-23T14:07:17;99925.22;;;19.15;48.92
47154;BME280;32907;41.412;2.164;2023-02-23T14:09:58;99982.00;;;19.63;49.37
47154;BME280;32907;41.412;2.164;2023-02-23T14:12:38;99949.44;;;19.44;49.10
47154;BME280;32907;41.412;2.164;2023-02-23T14:20:41;99978.06;;;19.69;48.88
47154;BME280;32907;41.412;2.164;2023-02-23T14:23:15;99982.22;;;19.67;48.65
47154;BME280;32907;41.412;2.164;2023-02-23T14:25:51;99970.22;;;19.68;48.63
47154;BME280;32907;41.412;2.164;2023-02-23T14:33:56;99932.03;;;19.59;48.48
47154;BME280;32907;41.412;2.164;2023-02-23T14:36:28;99898.47;;;19.36;48.48
47154;BME280;32907;41.412;2.164;2023-02-23T14:39:05;99812.19;;;18.87;48.31
47154;BME280;32907;41.412;2.164;2023-02-23T14:44:14;99943.50;;;19.70;48.27
47154;BME280;32907;41.412;2.164;2023-02-23T14:47:14;99942.72;;;19.69;48.37
47154;BME280;32907;41.412;2.164;2023-02-23T14:55:12;99951.91;;;19.73;48.09
47154;BME280;32907;41.412;2.164;2023-02-23T14:57:41;99836.75;;;19.09;48.00
47154;BME280;32907;41.412;2.164;2023-02-23T15:00:27;99933.44;;;19.70;48.12
47154;BME280;32907;41.412;2.164;2023-02-23T15:03:01;99931.84;;;19.69;48.50
47154;BME280;32907;41.412;2.164;2023-02-23T15:05:40;99930.13;;;19.73;48.27
47154;BME280;32907;41.412;2.164;2023-02-23T15:08:16;99895.66;;;19.55;48.06
47154;BME280;32907;41.412;2.164;2023-02-23T15:10:51;99877.22;;;19.38;48.27
47154;BME280;32907;41.412;2.164;2023-02-23T15:13:34;99891.94;;;19.51;47.99
47154;BME280;32907;41.412;2.164;2023-02-23T15:16:11;99905.84;;;19.63;47.99
47154;BME280;32907;41.412;2.164;2023-02-23T15:18:43;99884.78;;;19.41;47.86
47154;BME280;32907;41.412;2.164;2023-02-23T15:21:16;99904.84;;;19.59;47.68
47154;BME280;32907;41.412;2.164;2023-02-23T15:23:52;99937.06;;;19.79;47.88
47154;BME280;32907;41.412;2.164;2023-02-23T15:26:26;99922.34;;;19.80;47.66
47154;BME280;32907;41.412;2.164;2023-02-23T15:29:05;99927.78;;;19.80;47.83
47154;BME280;32907;41.412;2.164;2023-02-23T15:31:33;99870.75;;;19.48;47.46